Hauptseite
METAR-TAF:

METAR-TAF

Flughäfen :

Finkenwerder, Deutschland

Flugplatz Hamburg-Finkenwerder

Breite: 53-32N, Länge: 009-50E, Höhe: 5 m

Beobachtung

Neuester Wetterbericht von vor 17 Minuten, um 15:20 UTC
Wind 11 kt aus West/Nordwest
Temperatur 17°C
Luftfeuchtigkeit 48%
Luftdruck 1021 hPa
Sichtweite 10 km oder mehr

METAR: EDHI 211520Z AUTO 29011KT 9999 // NCD 17/06 Q1021

Zeit: 17:37 (15:37 UTC)

Prognose

Neuester Wetterbericht von vor 4 Stunden und 37 Minuten, um 11:00 UTC
Gültige Prognose vom 21 um 12 UTC bis 21 um 21 UTC
Wind 9 kt aus Nordwest
Sichtweite 10 km oder mehr
keine Wolken unter 1500 m und keine Kumulonimbus oder Gewitterwolken
Übergehend zu
vom 21 um 17 UTC bis 21 um 19 UTC
Wind 3 kt aus West/Nordwest

TAF: EDHI 211100Z 2112/2121 31009KT CAVOK BECMG 2117/2119 29003KT

Wetterbeobachtungen und Prognosen von mehr als 4000 Flughäfen (METAR und TAF Bericht).

Die verfügbaren Stationen werden durch gelbe und rote Markierungen auf der Karte dargestellt.

Führen Sie die Maus auf sie, um den Namen der Station zu sehen.

Darauf klicken, um die Beobachtung von Wetterbeobachtungen und Prognosen zu sehen.

Um die Karte zu ändern : klicken Sie auf den grünen Tasten mit einem schwarzen Kreuz Zum Vergrößern, auf den grünen Button mit einem Gedankenstrich zu verkleinern, oder auf die grünen Pfeile für benachbarte Karten.


METAR-TAF: